Terminal Aerodrome Forecast
Issued by NWS

Home | Current Version | Previous Version | Text Only | Print | Product List | Glossary On
Versions: 1 2 3 4 5 6 7 8 9 10 11 12 13 14 15 16 17 18 19 20 21 22 23 24 25 26 27 28 29 30 31 32 33 34 35 36 37 38 39 40 41 42 43 44 45 46 47 48
000
FTAK31 PAFA 022339
TAFATA
TAF
PATA 022339Z 0300/0324 27010KT 6SM FU BKN020 OVC070
     FM030500 VRB03KT 2SM FU OVC030
     FM030800 VRB04KT 1/2SM FU BKN050 BKN100
     FM031800 25005KT 4SM FU BKN050=

USA.gov is the U.S. government's official web portal to all federal, state and local government web resources and services.